Flight Track Log - Related Links

Times and Time Zones

All times are in EDT time to prevent confusion due to time zone crossing. See the C-GKZT flight status page for this flight to view local times or setup timezone preferences in your user account.

Time Position Orientation Groundspeed Altitude Reporting Facility
EDT Latitude Longitude Course Direction KTS MPH feet Rate Location/Type
Wed 09:09:04 PM 42.8417 -106.2544 140° Southeast 239 275 11,600  Level Denver Center
Wed 09:10:06 PM 42.7642 -106.1778 144° Southeast 285 328 13,500 1,902 Climbing Denver Center
Wed 09:11:07 PM 42.6983 -106.1028 140° Southeast 308 354 15,500 1,951 Climbing Denver Center
Wed 09:12:00 PM 42.4220 -105.9338 140° Southeast  Level Estimated
Wed 09:12:09 PM 42.6139 -106.0183 144° Southeast 330 380 17,500  Level Denver Center
Wed 09:13:00 PM 42.3407 -105.8462 143° Southeast  Level Estimated
Wed 09:13:11 PM 42.5431 -105.9397 141° Southeast 340 391 18,800  Level Denver Center
Wed 09:14:13 PM 42.4694 -105.8622 142° Southeast 348 400 20,200 1,452 Climbing Denver Center
Wed 09:15:15 PM 42.3822 -105.7694 142° Southeast 356 410 21,800 1,512 Climbing Denver Center
Wed 09:16:16 PM 42.3069 -105.6911 142° Southeast 357 411 23,300 1,512 Climbing Denver Center
Wed 09:17:18 PM 42.2186 -105.5956 141° Southeast 364 419 24,900 1,500 Climbing Denver Center
Wed 09:18:20 PM 42.1428 -105.5169 142° Southeast 361 415 26,400 1,500 Climbing Denver Center
Wed 09:19:22 PM 42.0561 -105.4247 142° Southeast 358 412 28,000 1,366 Climbing Denver Center
Wed 09:20:23 PM 41.9817 -105.3464 142° Southeast 356 410 29,200 1,220 Climbing Denver Center
Wed 09:21:25 PM 41.8922 -105.2547 143° Southeast 362 417 30,500 1,161 Climbing Denver Center
Wed 09:22:27 PM 41.8175 -105.1742 141° Southeast 362 417 31,600 1,113 Climbing Denver Center
Wed 09:23:29 PM 41.7283 -105.0856 143° Southeast 359 413 32,800 1,065 Climbing Denver Center
Wed 09:24:31 PM 41.6544 -105.0047 141° Southeast 358 412 33,800 878 Climbing Denver Center
Wed 09:25:32 PM 41.5914 -104.9433 144° Southeast 354 407 34,600 1,024 Climbing Denver Center
Wed 09:26:34 PM 41.4933 -104.8394 142° Southeast 352 405 35,900 1,113 Climbing Denver Center
Wed 09:27:36 PM 41.4183 -104.7669 144° Southeast 349 402 36,900 1,016 Climbing Denver Center
Wed 09:28:38 PM 41.3367 -104.6806 142° Southeast 338 389 38,000 976 Climbing Denver Center
Wed 09:29:39 PM 41.2656 -104.6111 144° Southeast 333 383 38,900 488 Climbing Denver Center
Wed 09:30:41 PM 41.1831 -104.5264 142° Southeast 336 387 39,000 48 Climbing Denver Center
Wed 09:31:43 PM 41.1064 -104.4489 143° Southeast 357 411 39,000  Level Denver Center
Wed 09:32:45 PM 41.0128 -104.3547 143° Southeast 376 433 39,000  Level Denver Center
Wed 09:33:46 PM 40.9317 -104.2719 142° Southeast 384 442 39,000  Level Denver Center
Wed 09:34:48 PM 40.8322 -104.1736 143° Southeast 398 458 39,000  Level Denver Center
Wed 09:35:50 PM 40.7483 -104.0878 142° Southeast 399 459 39,000  Level Denver Center
Wed 09:36:52 PM 40.6600 -104.0031 144° Southeast 408 470 39,000  Level Denver Center
Wed 09:37:54 PM 40.5600 -103.9025 143° Southeast 407 468 39,000  Level Denver Center
Wed 09:38:55 PM 40.4711 -103.8167 144° Southeast 413 475 39,000  Level Denver Center
Wed 09:39:57 PM 40.3692 -103.7153 143° Southeast 413 475 39,000  Level Denver Center
Wed 09:40:59 PM 40.2819 -103.6300 143° Southeast 410 472 39,000  Level Denver Center
Wed 09:42:01 PM 40.1814 -103.5317 143° Southeast 407 468 39,000  Level Denver Center
Wed 09:43:03 PM 40.0861 -103.4369 143° Southeast 408 470 39,000  Level Denver Center
Wed 09:44:04 PM 39.9989 -103.3550 144° Southeast 406 467 39,000  Level Denver Center
Wed 09:45:06 PM 39.9136 -103.2714 143° Southeast 403 464 39,000  Level Denver Center
Wed 09:46:08 PM 39.8108 -103.1756 144° Southeast 405 466 39,000  Level Denver Center
Wed 09:47:10 PM 39.7256 -103.0908 143° Southeast 405 466 39,000  Level Denver Center
Wed 09:48:11 PM 39.6231 -102.9953 144° Southeast 405 466 39,000  Level Denver Center
Wed 09:49:13 PM 39.5372 -102.9100 143° Southeast 405 466 39,000  Level Denver Center
Wed 09:50:15 PM 39.4344 -102.8158 145° Southeast 406 467 39,000  Level Denver Center
Wed 09:51:16 PM 39.3486 -102.7325 143° Southeast 404 465 39,000  Level Denver Center
Wed 09:52:18 PM 39.2483 -102.6406 145° Southeast 405 466 39,000  Level Denver Center
Wed 09:53:20 PM 39.1617 -102.5556 143° Southeast 408 470 39,000  Level Denver Center
Wed 09:54:33 PM 39.0589 -102.4619 145° Southeast 406 467 39,000  Level Denver Center
Wed 09:55:35 PM 38.9575 -102.3675 144° Southeast 403 464 39,000  Level Denver Center
Wed 09:56:37 PM 38.8578 -102.2722 143° Southeast 402 463 39,000  Level Denver Center
Wed 09:57:39 PM 38.7697 -102.1947 146° Southeast 400 460 39,000  Level Denver Center
Wed 09:58:40 PM 38.6703 -102.0992 143° Southeast 400 460 39,000  Level Denver Center
Wed 09:59:42 PM 38.5825 -102.0222 146° Southeast 400 460 39,000  Level Denver Center
Wed 10:00:43 PM 38.4986 -101.9408 143° Southeast 397 457 39,000  Level Denver Center
Wed 10:01:45 PM 38.3978 -101.8533 146° Southeast 394 453 39,000  Level Denver Center
Wed 10:02:47 PM 38.3139 -101.7742 143° Southeast 392 451 39,000  Level Denver Center
Wed 10:03:48 PM 38.2414 -101.7106 145° Southeast 395 455 39,000  Level Denver Center
Wed 10:04:50 PM 38.1275 -101.6056 144° Southeast 397 457 39,000  Level Denver Center
Wed 10:05:52 PM 38.0283 -101.5169 145° Southeast 392 451 39,000  Level Denver Center
Wed 10:06:53 PM 37.9419 -101.4386 144° Southeast 396 456 39,000  Level Denver Center
Wed 10:07:55 PM 37.8564 -101.3619 145° Southeast 396 456 39,000  Level Denver Center
Wed 10:08:28 PM 37.7997 -101.3092 144° Southeast 396 456 39,000  Level Kansas City Center
Wed 10:09:29 PM 37.7128 -101.2364 146° Southeast 395 455 39,000  Level Kansas City Center
Wed 10:10:30 PM 37.6139 -101.1447 144° Southeast 398 458 39,000  Level Kansas City Center
Wed 10:11:31 PM 37.5253 -101.0711 147° Southeast 403 464 39,000  Level Kansas City Center
Wed 10:12:32 PM 37.4258 -100.9761 143° Southeast 405 466 39,000  Level Kansas City Center
Wed 10:13:33 PM 37.3369 -100.9011 146° Southeast 404 465 39,000  Level Kansas City Center
Wed 10:14:34 PM 37.2497 -100.8208 144° Southeast 406 467 39,000  Level Kansas City Center
Wed 10:15:35 PM 37.1456 -100.7314 146° Southeast 408 470 39,000  Level Kansas City Center
Wed 10:16:36 PM 37.0581 -100.6539 145° Southeast 404 465 39,000  Level Kansas City Center
Wed 10:17:37 PM 36.9553 -100.5647 145° Southeast 403 464 39,000  Level Kansas City Center
Wed 10:18:38 PM 36.8669 -100.4886 145° Southeast 402 463 39,000  Level Kansas City Center
Wed 10:19:39 PM 36.7786 -100.4119 145° Southeast 404 465 39,000  Level Kansas City Center
Wed 10:20:40 PM 36.6764 -100.3253 146° Southeast 404 465 39,000  Level Kansas City Center
Wed 10:21:41 PM 36.5844 -100.2436 144° Southeast 405 466 39,000  Level Kansas City Center
Wed 10:22:41 PM 36.4900 -100.1658 146° Southeast 407 468 39,000  Level Kansas City Center
Wed 10:23:43 PM 36.3975 -100.0831 144° Southeast 409 471 39,000  Level Kansas City Center
Wed 10:24:44 PM 36.3019 -100.0047 147° Southeast 410 472 39,000  Level Kansas City Center
Wed 10:25:44 PM 36.2081 -99.9219 145° Southeast 413 475 39,000  Level Kansas City Center
Wed 10:26:45 PM 36.1125 -99.8439 147° Southeast 413 475 39,000  Level Kansas City Center
Wed 10:27:46 PM 36.0181 -99.7614 145° Southeast 416 479 39,000  Level Kansas City Center
Wed 10:28:47 PM 35.9214 -99.6839 147° Southeast 416 479 39,000  Level Kansas City Center
Wed 10:29:48 PM 35.8275 -99.6011 144° Southeast 416 479 39,000  Level Kansas City Center
Wed 10:30:49 PM 35.7122 -99.5075 147° Southeast 417 480 39,000  Level Kansas City Center
Wed 10:31:50 PM 35.6142 -99.4300 147° Southeast 420 483 39,000  Level Kansas City Center
Wed 10:32:26 PM 35.5531 -99.3908 152° Southeast 417 480 39,000  Level Fort Worth Center
Wed 10:33:26 PM 35.4544 -99.3122 147° Southeast 417 480 39,000  Level Fort Worth Center
Wed 10:34:26 PM 35.3531 -99.2411 150° Southeast 417 480 39,000  Level Fort Worth Center
Wed 10:35:26 PM 35.2564 -99.1653 147° Southeast 422 486 39,000  Level Fort Worth Center
Wed 10:36:26 PM 35.1572 -99.0919 149° Southeast 422 486 39,000 -250 Level Fort Worth Center
Wed 10:37:26 PM 35.0622 -99.0217 149° Southeast 422 486 38,500 -1,050 Descending Fort Worth Center
Wed 10:38:26 PM 34.9650 -98.9514 149° Southeast 410 472 36,900 -1,650 Descending Fort Worth Center
Wed 10:39:26 PM 34.8700 -98.8814 149° Southeast 410 472 35,200 -1,500 Descending Fort Worth Center
Wed 10:40:26 PM 34.7725 -98.8114 149° Southeast 405 466 33,900 -1,350 Descending Fort Worth Center
Wed 10:41:26 PM 34.6775 -98.7392 148° Southeast 400 460 32,500 -1,400 Descending Fort Worth Center
Wed 10:42:26 PM 34.5822 -98.6772 152° Southeast 395 455 31,100 -1,500 Descending Fort Worth Center
Wed 10:43:26 PM 34.4889 -98.6103 149° Southeast 390 449 29,500 -1,600 Descending Fort Worth Center
Wed 10:44:26 PM 34.3956 -98.5436 149° Southeast 395 455 27,900 -1,750 Descending Fort Worth Center
Wed 10:45:26 PM 34.2961 -98.4719 149° Southeast 401 461 26,000 -1,900 Descending Fort Worth Center
Wed 10:46:26 PM 34.1944 -98.3978 149° Southeast 407 468 24,100 -1,700 Descending Fort Worth Center
Wed 10:47:26 PM 34.1053 -98.3292 147° Southeast 401 461 22,600 -1,600 Descending Fort Worth Center
Wed 10:48:26 PM 34.0139 -98.2631 149° Southeast 391 450 20,900 -1,600 Descending Fort Worth Center
Wed 10:49:26 PM 33.9225 -98.1994 150° Southeast 391 450 19,400 -1,450 Descending Fort Worth Center
Wed 10:50:26 PM 33.8353 -98.1361 149° Southeast 379 436 18,000 -1,550 Descending Fort Worth Center
Wed 10:51:26 PM 33.7564 -98.0806 150° Southeast 374 430 16,300 -1,550 Descending Fort Worth Center
Wed 10:52:26 PM 33.6689 -98.0175 149° Southeast 374 430 14,900 -1,550 Descending Fort Worth Center
Wed 10:53:26 PM 33.5794 -97.9569 151° Southeast 349 402 13,200 -1,500 Descending Fort Worth Center
Wed 10:54:26 PM 33.5025 -97.8992 148° Southeast 332 382 11,900 -1,300 Descending Fort Worth Center
Wed 10:55:26 PM 33.4378 -97.8567 151° Southeast 307 353 10,600 -1,300 Descending Fort Worth Center
Wed 10:56:26 PM 33.3608 -97.7989 148° Southeast 294 338 9,300 -1,200 Descending Fort Worth Center
Wed 10:57:26 PM 33.2983 -97.7589 152° Southeast 287 330 8,200 -750 Descending Fort Worth Center
Wed 10:58:26 PM 33.2506 -97.6842 127° Southeast 282 325 7,800 -1,000 Descending Fort Worth Center
Wed 10:59:26 PM 33.2319 -97.5947 104° East 265 305 6,200 -1,350 Descending Fort Worth Center
Wed 11:00:26 PM 33.2194 -97.5128 100° East 259 298 5,100 -1,300 Descending Fort Worth Center
Wed 11:01:26 PM 33.1861 -97.4531 124° Southeast 218 251 3,600 -1,000 Descending Fort Worth Center
Wed 11:02:26 PM 33.1528 -97.4036 129° Southeast 205 236 3,100 -550 Descending Fort Worth Center
Wed 11:03:26 PM 33.1319 -97.3614 120° Southeast 155 178 2,500 -300 Descending Fort Worth Center
Wed 11:04:26 PM 33.1047 -97.3414 148° Southeast 121 139 2,500 -150 Level Fort Worth Center
Wed 11:05:26 PM 33.0733 -97.3367 173° South 106 122 2,200 -450 Descending Fort Worth Center
Wed 11:06:26 PM 33.0400 -97.3292 169° South 111 128 1,600 -550 Descending Fort Worth Center
Wed 11:07:26 PM 33.0128 -97.3267 176° South 117 135 1,100 -400 Descending Fort Worth Center
Wed 11:08:26 PM 32.9794 -97.3194 170° South 112 129 800 -300 Descending Fort Worth Center
Wed 11:11:00 PM 32.9876 -97.3188 North  Level Estimated
Wed 11:18:00 PM 32.9876 -97.3188 107° East  Level Estimated
Wed 11:19:00 PM 32.9876 -97.3188 107° East  Level Estimated
Wed 11:20:00 PM 32.9876 -97.3188 107° East  Level Estimated
Wed 11:21:00 PM 32.9876 -97.3188 107° East  Level Estimated
Wed 11:22:00 PM 32.9876 -97.3188 107° East  Level Estimated

Login

Don't have an account? Register now (free) for customized features, flight alerts, and more!